Time;durP1;ratioP1;P1;durP2;ratioP2;P2;SDS_P1;SDS_P2;PMS_P1;PMS_P2;Temp;Humidity;BMP_temperature;BMP_pressure;BME280_temperature;BME280_humidity;BME280_pressure;Samples;Min_cycle;Max_cycle;Signal;HPM_P1;HPM_P2
2023/06/05 00:00:44;;;;;;;2.63;2.20;;;14.20;79.30;;;;;;476122;250;29290;-79
2023/06/05 00:02:46;;;;;;;6.80;2.40;;;14.00;80.60;;;;;;468511;254;28926;-78
2023/06/05 00:04:47;;;;;;;2.43;2.23;;;13.90;82.50;;;;;;475918;250;28873;-79
2023/06/05 00:06:48;;;;;;;2.80;2.03;;;13.70;83.20;;;;;;468567;254;28915;-81
2023/06/05 00:08:50;;;;;;;2.40;2.20;;;13.60;83.80;;;;;;475908;250;28874;-78
2023/06/05 00:10:50;;;;;;;2.10;1.90;;;13.50;83.90;;;;;;468836;254;28608;-78
2023/06/05 00:12:52;;;;;;;2.60;2.40;;;13.50;84.40;;;;;;476145;250;28854;-78
2023/06/05 00:14:54;;;;;;;1.97;1.87;;;13.50;84.40;;;;;;468837;254;29117;-79
2023/06/05 00:16:56;;;;;;;2.30;2.00;;;13.50;85.50;;;;;;476111;250;28855;-79
2023/06/05 00:18:56;;;;;;;4.00;2.43;;;13.40;85.50;;;;;;468761;254;29025;-78
2023/06/05 00:20:57;;;;;;;2.33;2.03;;;13.40;84.80;;;;;;476089;250;28459;-79
2023/06/05 00:22:58;;;;;;;3.13;1.80;;;13.30;86.60;;;;;;468837;254;28462;-78
2023/06/05 00:24:59;;;;;;;2.20;2.00;;;13.30;86.70;;;;;;476046;250;29003;-81
2023/06/05 00:27:00;;;;;;;3.33;2.40;;;13.30;85.80;;;;;;468770;254;28902;-81
2023/06/05 00:29:02;;;;;;;2.30;2.07;;;13.20;85.20;;;;;;476176;250;28329;-82
2023/06/05 00:31:03;;;;;;;2.47;2.27;;;13.10;86.50;;;;;;468924;253;28922;-81
2023/06/05 00:33:04;;;;;;;1.87;1.77;;;13.00;87.40;;;;;;476097;250;28753;-81
2023/06/05 00:35:05;;;;;;;3.07;2.60;;;13.00;88.20;;;;;;468788;254;28516;-82
2023/06/05 00:37:07;;;;;;;2.27;2.07;;;12.90;88.00;;;;;;476178;250;28317;-81
2023/06/05 00:39:08;;;;;;;2.30;2.10;;;12.90;88.90;;;;;;468936;253;28574;-81
2023/06/05 00:41:09;;;;;;;2.50;2.00;;;12.80;89.30;;;;;;476140;250;28556;-80
2023/06/05 00:43:10;;;;;;;2.17;1.83;;;12.80;89.70;;;;;;468783;254;28609;-82
2023/06/05 00:45:12;;;;;;;2.97;2.13;;;12.70;90.10;;;;;;476154;250;28246;-81
2023/06/05 00:47:13;;;;;;;2.03;1.90;;;12.70;90.20;;;;;;468824;254;28366;-83
2023/06/05 00:49:14;;;;;;;4.73;1.93;;;12.60;90.00;;;;;;476106;250;28263;-82
2023/06/05 00:51:15;;;;;;;5.37;2.17;;;12.70;90.70;;;;;;468835;254;28906;-82
2023/06/05 00:53:17;;;;;;;3.40;2.03;;;12.60;90.80;;;;;;476178;250;28211;-81
2023/06/05 00:55:18;;;;;;;1.97;1.87;;;12.60;90.80;;;;;;468761;254;28483;-81
2023/06/05 00:57:19;;;;;;;2.30;2.10;;;12.60;91.00;;;;;;476202;250;28110;-83
2023/06/05 00:59:20;;;;;;;2.47;2.27;;;12.60;90.90;;;;;;468830;254;28225;-82
2023/06/05 01:01:24;;;;;;;2.30;2.10;;;12.60;90.80;;;;;;476193;250;28303;-82
2023/06/05 01:03:23;;;;;;;2.20;2.00;;;12.60;90.90;;;;;;468683;254;28249;-81
2023/06/05 01:05:26;;;;;;;2.13;1.93;;;12.50;91.70;;;;;;476018;250;28260;-79
2023/06/05 01:07:27;;;;;;;4.43;2.03;;;12.50;92.30;;;;;;468637;254;28464;-80
2023/06/05 01:09:27;;;;;;;2.00;1.80;;;12.50;92.50;;;;;;475996;250;28186;-78
2023/06/05 01:11:28;;;;;;;2.33;1.80;;;12.50;92.50;;;;;;468783;254;28352;-81
2023/06/05 01:13:29;;;;;;;3.93;2.23;;;12.50;93.00;;;;;;476015;250;28337;-78
2023/06/05 01:15:31;;;;;;;3.67;2.00;;;12.50;92.10;;;;;;468753;254;28253;-79
2023/06/05 01:17:35;;;;;;;2.20;1.90;;;12.50;92.90;;;;;;476063;250;28422;-81
2023/06/05 01:19:39;;;;;;;1.97;1.70;;;12.50;92.80;;;;;;468685;253;28474;-79
2023/06/05 01:21:37;;;;;;;2.20;2.00;;;12.50;92.70;;;;;;475828;250;28329;-82
2023/06/05 01:23:44;;;;;;;2.00;1.80;;;12.40;92.40;;;;;;468804;253;28347;-81
2023/06/05 01:25:43;;;;;;;2.97;2.00;;;12.30;92.70;;;;;;475737;250;28225;-84
2023/06/05 01:27:42;;;;;;;1.77;1.67;;;12.10;93.40;;;;;;468389;254;28375;-81
2023/06/05 01:29:42;;;;;;;2.70;2.37;;;12.10;93.40;;;;;;476091;250;28330;-80
2023/06/05 01:31:43;;;;;;;2.40;2.20;;;12.00;93.50;;;;;;468779;254;28344;-81
2023/06/05 01:33:49;;;;;;;1.80;1.70;;;12.00;94.00;;;;;;476094;246;28352;-81
2023/06/05 01:35:51;;;;;;;2.23;2.03;;;12.00;94.40;;;;;;468451;254;28417;-83
2023/06/05 01:37:48;;;;;;;3.87;1.90;;;12.00;94.10;;;;;;475831;250;29321;-81
2023/06/05 01:39:48;;;;;;;2.27;1.97;;;12.00;94.10;;;;;;468757;254;28383;-83
2023/06/05 01:41:50;;;;;;;3.03;1.90;;;12.00;94.10;;;;;;476233;250;28109;-80
2023/06/05 01:43:51;;;;;;;1.77;1.67;;;12.10;93.80;;;;;;468725;254;28373;-82
2023/06/05 01:45:52;;;;;;;2.20;2.00;;;12.10;94.30;;;;;;476076;250;28954;-82
2023/06/05 01:47:54;;;;;;;1.70;1.60;;;12.00;94.60;;;;;;468825;254;28305;-82
2023/06/05 01:49:55;;;;;;;2.27;2.07;;;12.00;94.70;;;;;;476060;250;28314;-84
2023/06/05 01:51:56;;;;;;;2.40;2.00;;;12.00;94.80;;;;;;468785;253;28457;-82
2023/06/05 01:53:57;;;;;;;2.13;1.93;;;11.90;94.40;;;;;;476152;250;28253;-81
2023/06/05 01:55:59;;;;;;;2.50;1.93;;;11.90;95.40;;;;;;468661;254;28413;-81
2023/06/05 01:58:00;;;;;;;2.27;2.10;;;11.80;95.60;;;;;;476137;250;28124;-82
2023/06/05 02:00:08;;;;;;;3.63;2.17;;;11.70;96.00;;;;;;468785;254;28276;-81
2023/06/05 02:02:05;;;;;;;1.80;1.70;;;11.70;96.20;;;;;;475906;250;28387;-82
2023/06/05 02:04:07;;;;;;;2.77;2.23;;;11.70;96.00;;;;;;468721;253;28259;-81
2023/06/05 02:06:08;;;;;;;3.33;2.20;;;11.70;96.40;;;;;;475904;250;28396;-80
2023/06/05 02:08:10;;;;;;;2.47;2.07;;;11.60;96.90;;;;;;468650;253;28101;-80
2023/06/05 02:10:12;;;;;;;1.93;1.83;;;;;;;;;;475948;250;29001;-80
2023/06/05 02:12:14;;;;;;;4.07;2.17;;;11.60;96.70;;;;;;477042;250;27331;-80
2023/06/05 02:14:15;;;;;;;5.77;2.30;;;11.60;96.40;;;;;;477010;250;28126;-78
2023/06/05 02:16:17;;;;;;;3.80;1.97;;;11.60;96.50;;;;;;477051;250;28161;-82
2023/06/05 02:18:16;;;;;;;3.30;2.10;;;11.60;96.60;;;;;;476928;250;28520;-80
2023/06/05 02:20:18;;;;;;;2.33;2.13;;;11.60;96.70;;;;;;477110;250;28384;-79
2023/06/05 02:22:19;;;;;;;2.13;1.93;;;11.60;97.00;;;;;;477148;250;28650;-80
2023/06/05 02:24:20;;;;;;;2.30;2.10;;;11.40;97.30;;;;;;477050;250;28621;-80
2023/06/05 02:26:22;;;;;;;2.60;2.40;;;11.30;97.50;;;;;;477155;250;28460;-81
2023/06/05 02:28:23;;;;;;;3.40;2.10;;;11.30;97.80;;;;;;477181;250;28277;-80
2023/06/05 02:30:26;;;;;;;3.50;2.30;;;;;;;;;;477066;250;29387;-80
2023/06/05 02:32:28;;;;;;;2.73;2.00;;;11.20;98.40;;;;;;477067;250;26982;-81
2023/06/05 02:34:28;;;;;;;2.50;2.30;;;11.20;98.50;;;;;;476964;250;28675;-81
2023/06/05 02:36:32;;;;;;;3.13;2.27;;;11.20;98.70;;;;;;477131;250;28663;-80
2023/06/05 02:38:30;;;;;;;2.30;2.10;;;11.10;98.80;;;;;;476877;250;28172;-80
2023/06/05 02:40:31;;;;;;;2.50;2.00;;;11.00;99.00;;;;;;477059;250;28109;-81
2023/06/05 02:42:33;;;;;;;2.97;2.37;;;11.10;99.10;;;;;;477029;250;28615;-81
2023/06/05 02:44:34;;;;;;;3.57;2.00;;;11.10;98.90;;;;;;477091;250;28875;-81
2023/06/05 02:46:35;;;;;;;2.67;2.47;;;11.10;99.30;;;;;;477043;250;28596;-79
2023/06/05 02:48:36;;;;;;;4.77;2.30;;;10.80;99.40;;;;;;477141;250;28068;-79
2023/06/05 02:50:38;;;;;;;3.10;2.03;;;10.70;99.90;;;;;;477115;250;28525;-80
2023/06/05 02:52:39;;;;;;;3.47;2.53;;;10.70;99.90;;;;;;477077;250;28330;-80
2023/06/05 02:54:40;;;;;;;3.70;2.27;;;10.60;99.90;;;;;;477062;250;28189;-79
2023/06/05 02:56:43;;;;;;;3.50;2.10;;;10.60;99.90;;;;;;477104;250;28156;-81
2023/06/05 02:58:45;;;;;;;2.70;2.50;;;10.50;99.90;;;;;;477013;250;28310;-81
2023/06/05 03:00:45;;;;;;;2.50;2.30;;;10.50;99.90;;;;;;476956;250;28489;-81
2023/06/05 03:02:48;;;;;;;3.77;2.10;;;;;;;;;;477098;250;28399;-81
2023/06/05 03:04:55;;;;;;;2.43;2.13;;;10.50;99.90;;;;;;477057;250;26962;-80
2023/06/05 03:06:50;;;;;;;2.30;2.10;;;10.60;99.90;;;;;;476625;250;28654;-81
2023/06/05 03:08:50;;;;;;;2.30;2.10;;;10.60;99.90;;;;;;477106;250;28788;-82
2023/06/05 03:10:51;;;;;;;2.50;2.30;;;10.50;99.90;;;;;;477082;250;28233;-81
2023/06/05 03:12:53;;;;;;;2.60;2.20;;;10.50;99.90;;;;;;477154;250;28528;-81
2023/06/05 03:14:54;;;;;;;2.60;2.20;;;10.50;99.90;;;;;;477111;250;28349;-82
2023/06/05 03:16:58;;;;;;;2.80;2.33;;;10.50;99.90;;;;;;477091;250;28572;-82
2023/06/05 03:18:56;;;;;;;3.03;2.53;;;10.50;99.90;;;;;;477009;250;28206;-82
2023/06/05 03:20:58;;;;;;;2.63;2.00;;;10.50;99.90;;;;;;477138;250;28278;-80
2023/06/05 03:22:59;;;;;;;2.57;2.17;;;10.60;99.90;;;;;;477018;250;28334;-80
2023/06/05 03:25:00;;;;;;;2.23;2.03;;;10.60;99.90;;;;;;477082;250;28588;-80
2023/06/05 03:27:01;;;;;;;2.23;2.03;;;10.50;99.90;;;;;;477085;250;28322;-79
2023/06/05 03:29:03;;;;;;;2.40;2.03;;;10.50;99.90;;;;;;477122;250;28780;-81
2023/06/05 03:31:04;;;;;;;2.47;2.27;;;10.50;99.90;;;;;;477172;250;28271;-80
2023/06/05 03:33:05;;;;;;;2.43;2.23;;;10.50;99.90;;;;;;477197;250;28706;-81
2023/06/05 03:35:07;;;;;;;2.40;2.17;;;10.40;99.90;;;;;;477099;250;28191;-79
2023/06/05 03:37:08;;;;;;;2.43;2.23;;;10.40;99.90;;;;;;477150;250;28125;-80
2023/06/05 03:39:09;;;;;;;3.33;2.17;;;10.40;99.90;;;;;;477156;250;28215;-79
2023/06/05 03:41:10;;;;;;;2.30;2.10;;;10.40;99.90;;;;;;477192;250;28357;-79
2023/06/05 03:43:11;;;;;;;2.80;2.27;;;10.40;99.90;;;;;;477103;250;28104;-81
2023/06/05 03:45:13;;;;;;;3.53;2.23;;;10.50;99.90;;;;;;477176;250;28373;-80
2023/06/05 03:47:14;;;;;;;3.17;2.77;;;10.50;99.90;;;;;;477171;246;28128;-80
2023/06/05 03:49:15;;;;;;;2.77;2.53;;;10.40;99.90;;;;;;477181;250;28480;-81
2023/06/05 03:51:19;;;;;;;2.70;2.27;;;10.40;99.90;;;;;;477161;250;28251;-80
2023/06/05 03:53:22;;;;;;;3.10;2.23;;;10.40;99.90;;;;;;477195;250;28402;-81
2023/06/05 03:55:22;;;;;;;3.70;2.43;;;10.50;99.90;;;;;;476941;250;28219;-81
2023/06/05 03:57:24;;;;;;;2.23;2.07;;;10.40;99.90;;;;;;477212;250;28209;-80
2023/06/05 03:59:25;;;;;;;2.13;2.00;;;10.40;99.90;;;;;;477167;250;28062;-80
2023/06/05 04:01:25;;;;;;;2.50;2.30;;;10.40;99.90;;;;;;477068;249;28319;-81
2023/06/05 04:03:27;;;;;;;2.30;2.10;;;10.40;99.90;;;;;;477144;250;28352;-80
2023/06/05 04:05:28;;;;;;;2.37;2.10;;;10.40;99.90;;;;;;477085;250;28900;-80
2023/06/05 04:07:29;;;;;;;3.77;2.40;;;10.40;99.90;;;;;;477165;250;28285;-80
2023/06/05 04:09:31;;;;;;;3.83;2.07;;;10.50;99.90;;;;;;477184;250;28227;-81
2023/06/05 04:11:33;;;;;;;2.33;2.13;;;10.50;99.90;;;;;;477125;250;28211;-79
2023/06/05 04:13:33;;;;;;;2.60;2.40;;;10.50;99.90;;;;;;477081;250;28090;-80
2023/06/05 04:15:34;;;;;;;2.60;2.40;;;10.50;99.90;;;;;;477086;249;28167;-81
2023/06/05 04:17:37;;;;;;;3.03;2.47;;;10.60;99.90;;;;;;477117;250;28840;-80
2023/06/05 04:19:37;;;;;;;2.80;2.50;;;10.60;99.90;;;;;;476926;250;28311;-80
2023/06/05 04:21:38;;;;;;;3.60;2.10;;;10.60;99.90;;;;;;477115;250;28203;-80
2023/06/05 04:23:39;;;;;;;3.63;2.50;;;10.60;99.90;;;;;;477104;250;28224;-78
2023/06/05 04:25:45;;;;;;;2.30;2.10;;;10.70;99.90;;;;;;477095;250;28353;-81
2023/06/05 04:27:42;;;;;;;2.83;2.40;;;10.80;99.90;;;;;;476801;250;28422;-79
2023/06/05 04:29:44;;;;;;;2.53;2.33;;;;;;;;;;477156;250;28313;-79
2023/06/05 04:31:45;;;;;;;2.63;2.20;;;11.00;99.90;;;;;;477118;250;26979;-80
2023/06/05 04:33:46;;;;;;;2.10;2.00;;;11.10;99.90;;;;;;477087;250;28414;-80
2023/06/05 04:35:48;;;;;;;2.23;2.03;;;11.10;99.90;;;;;;477050;250;28350;-79
2023/06/05 04:37:50;;;;;;;2.87;2.67;;;11.10;99.90;;;;;;477053;245;28246;-80
2023/06/05 04:39:50;;;;;;;2.20;2.00;;;11.20;99.90;;;;;;477094;250;28158;-79
2023/06/05 04:41:52;;;;;;;3.37;2.10;;;11.20;99.90;;;;;;477135;250;28121;-80
2023/06/05 04:43:54;;;;;;;2.50;2.30;;;11.30;99.90;;;;;;477109;250;28105;-80
2023/06/05 04:45:54;;;;;;;2.60;2.10;;;11.20;99.90;;;;;;476963;250;28354;-79
2023/06/05 04:47:55;;;;;;;2.33;2.13;;;11.20;99.90;;;;;;477108;250;28264;-80
2023/06/05 04:49:57;;;;;;;2.97;2.67;;;11.20;99.90;;;;;;477175;250;28437;-79
2023/06/05 04:51:59;;;;;;;4.83;2.43;;;11.20;99.90;;;;;;477063;250;29182;-79
2023/06/05 04:53:59;;;;;;;2.10;2.00;;;11.10;99.90;;;;;;477030;250;28657;-80
2023/06/05 04:56:01;;;;;;;2.40;2.20;;;11.10;99.90;;;;;;477117;250;28612;-81
2023/06/05 04:58:02;;;;;;;2.50;2.30;;;11.20;99.90;;;;;;477047;250;28543;-81
2023/06/05 05:00:05;;;;;;;3.03;2.20;;;11.30;99.90;;;;;;477112;250;28221;-80
2023/06/05 05:02:04;;;;;;;2.97;2.20;;;11.30;99.90;;;;;;477069;250;28919;-79
2023/06/05 05:04:05;;;;;;;2.60;2.07;;;11.50;99.90;;;;;;477226;250;28480;-79
2023/06/05 05:06:07;;;;;;;4.73;2.40;;;11.50;99.90;;;;;;477147;250;28583;-80
2023/06/05 05:08:08;;;;;;;2.13;2.03;;;11.60;99.90;;;;;;477162;250;28098;-82
2023/06/05 05:10:09;;;;;;;2.27;2.07;;;11.70;99.90;;;;;;477132;250;28229;-80
2023/06/05 05:12:11;;;;;;;2.70;2.20;;;11.70;99.90;;;;;;477147;250;28370;-80
2023/06/05 05:14:12;;;;;;;2.33;2.13;;;11.80;99.90;;;;;;477180;250;28455;-79
2023/06/05 05:16:13;;;;;;;2.30;2.10;;;11.90;99.90;;;;;;477150;250;28239;-80
2023/06/05 05:18:14;;;;;;;2.30;1.90;;;12.00;99.90;;;;;;477224;250;28209;-80
2023/06/05 05:20:16;;;;;;;2.00;1.90;;;12.10;99.90;;;;;;477132;250;28456;-81
2023/06/05 05:22:17;;;;;;;3.63;2.20;;;12.20;99.90;;;;;;477121;250;28374;-79
2023/06/05 05:24:18;;;;;;;3.50;2.60;;;12.30;99.90;;;;;;477117;250;28221;-79
2023/06/05 05:26:20;;;;;;;2.30;2.10;;;12.50;98.90;;;;;;477124;250;28298;-80
2023/06/05 05:28:20;;;;;;;2.37;2.17;;;12.80;99.90;;;;;;477188;250;28242;-80
2023/06/05 05:30:22;;;;;;;2.47;2.10;;;12.70;99.90;;;;;;477150;250;28361;-79
2023/06/05 05:32:23;;;;;;;1.93;1.73;;;12.80;99.30;;;;;;477227;250;28191;-80
2023/06/05 05:34:24;;;;;;;3.27;2.10;;;13.00;99.60;;;;;;477165;250;28467;-78
2023/06/05 05:36:26;;;;;;;1.80;1.70;;;13.20;97.60;;;;;;477266;250;28334;-80
2023/06/05 05:38:27;;;;;;;2.73;1.90;;;13.20;99.20;;;;;;477134;250;28400;-79
2023/06/05 05:40:28;;;;;;;3.77;2.00;;;13.50;94.70;;;;;;477205;250;28461;-78
2023/06/05 05:42:29;;;;;;;2.83;2.20;;;13.60;93.90;;;;;;477165;246;28241;-78
2023/06/05 05:44:30;;;;;;;2.23;1.83;;;13.80;93.50;;;;;;477159;250;28566;-78
2023/06/05 05:46:32;;;;;;;2.43;1.90;;;13.90;92.90;;;;;;477021;250;28885;-78
2023/06/05 05:48:33;;;;;;;4.67;2.00;;;14.00;92.30;;;;;;477106;250;28444;-78
2023/06/05 05:50:34;;;;;;;2.50;2.23;;;14.10;91.80;;;;;;477191;250;28839;-78
2023/06/05 05:52:35;;;;;;;3.13;1.93;;;14.20;91.90;;;;;;477156;250;28581;-79
2023/06/05 05:54:37;;;;;;;4.13;1.80;;;14.20;91.40;;;;;;477054;250;28912;-78
2023/06/05 05:56:38;;;;;;;2.20;1.90;;;14.30;91.30;;;;;;477281;250;28859;-80
2023/06/05 05:58:39;;;;;;;6.07;1.77;;;14.30;91.00;;;;;;477308;250;28549;-79
2023/06/05 06:00:40;;;;;;;2.20;2.00;;;14.40;91.00;;;;;;477188;250;28879;-79
2023/06/05 06:02:42;;;;;;;6.23;2.33;;;14.40;91.30;;;;;;477114;250;29524;-78
2023/06/05 06:04:47;;;;;;;6.13;2.27;;;14.50;91.40;;;;;;477148;250;29338;-81
2023/06/05 06:06:52;;;;;;;5.77;1.90;;;14.50;91.00;;;;;;477254;250;28882;-80
2023/06/05 06:08:50;;;;;;;8.73;2.60;;;14.60;91.00;;;;;;476956;249;29439;-80
2023/06/05 06:10:51;;;;;;;3.53;2.27;;;14.70;91.40;;;;;;477147;250;29010;-80
2023/06/05 06:12:53;;;;;;;5.87;2.23;;;14.70;91.10;;;;;;477221;250;28998;-79
2023/06/05 06:14:53;;;;;;;2.60;2.10;;;14.70;91.20;;;;;;477150;250;28971;-81
2023/06/05 06:16:57;;;;;;;5.57;2.00;;;14.80;91.10;;;;;;477143;250;28878;-80
2023/06/05 06:18:56;;;;;;;4.47;2.33;;;14.80;91.40;;;;;;476967;250;28976;-80
2023/06/05 06:20:58;;;;;;;3.60;2.50;;;14.80;91.60;;;;;;477153;250;28876;-82
2023/06/05 06:22:58;;;;;;;4.17;2.27;;;14.90;91.50;;;;;;477118;250;28991;-82
2023/06/05 06:25:00;;;;;;;5.30;2.50;;;15.00;91.20;;;;;;476973;250;28887;-84
2023/06/05 06:27:01;;;;;;;2.17;1.97;;;15.10;91.60;;;;;;476997;250;28876;-80
2023/06/05 06:29:02;;;;;;;4.87;2.20;;;15.20;91.40;;;;;;477058;250;28881;-80
2023/06/05 06:31:03;;;;;;;4.30;1.90;;;15.20;91.00;;;;;;476920;250;29344;-82
2023/06/05 06:33:05;;;;;;;3.43;1.80;;;15.20;91.10;;;;;;476895;250;29426;-81
2023/06/05 06:35:06;;;;;;;2.80;1.90;;;15.20;91.60;;;;;;476810;250;29001;-82
2023/06/05 06:37:07;;;;;;;6.20;2.67;;;15.40;91.40;;;;;;476817;250;28909;-84
2023/06/05 06:39:08;;;;;;;10.87;2.57;;;15.40;91.30;;;;;;476662;250;28830;-83
2023/06/05 06:41:10;;;;;;;4.53;2.33;;;15.50;90.90;;;;;;476760;250;28807;-83
2023/06/05 06:43:11;;;;;;;2.83;2.00;;;15.70;89.10;;;;;;476682;250;28880;-82
2023/06/05 06:45:12;;;;;;;2.10;1.80;;;15.70;89.30;;;;;;476840;250;28875;-84
2023/06/05 06:47:13;;;;;;;2.80;2.20;;;15.70;89.40;;;;;;476831;250;28884;-83
2023/06/05 06:49:15;;;;;;;1.93;1.67;;;15.90;90.80;;;;;;476695;250;28819;-82
2023/06/05 06:51:16;;;;;;;5.53;2.20;;;15.90;90.20;;;;;;476677;250;28880;-84
2023/06/05 06:53:18;;;;;;;3.40;1.97;;;16.00;91.00;;;;;;497972;230;29158;-83
2023/06/05 06:55:18;;;;;;;2.93;2.23;;;16.10;89.10;;;;;;518364;230;29547;-82
2023/06/05 06:57:20;;;;;;;1.80;1.70;;;16.20;90.20;;;;;;518384;230;29055;-83
2023/06/05 06:59:21;;;;;;;4.97;2.40;;;16.20;87.10;;;;;;518352;230;29126;-81
2023/06/05 07:01:23;;;;;;;4.27;2.10;;;16.20;90.00;;;;;;518267;230;28664;-81
2023/06/05 07:03:24;;;;;;;2.97;2.30;;;16.30;90.20;;;;;;518201;230;28596;-83
2023/06/05 07:05:25;;;;;;;3.90;2.00;;;16.30;89.90;;;;;;518050;230;28734;-81
2023/06/05 07:07:27;;;;;;;5.00;2.23;;;16.30;90.10;;;;;;518097;230;28714;-83
2023/06/05 07:09:27;;;;;;;5.23;2.30;;;16.40;90.30;;;;;;517949;230;28659;-82
2023/06/05 07:11:28;;;;;;;3.43;2.00;;;16.40;89.50;;;;;;518032;230;28605;-83
2023/06/05 07:13:30;;;;;;;3.20;1.93;;;16.50;90.20;;;;;;517893;230;28649;-83
2023/06/05 07:15:31;;;;;;;6.60;2.20;;;16.60;89.70;;;;;;517893;230;28713;-81
2023/06/05 07:17:32;;;;;;;3.60;2.50;;;16.70;88.30;;;;;;517914;230;28609;-83
2023/06/05 07:19:33;;;;;;;2.80;2.10;;;16.70;88.00;;;;;;517998;230;29105;-82
2023/06/05 07:21:37;;;;;;;2.70;2.10;;;16.70;87.70;;;;;;517993;230;29146;-83
2023/06/05 07:23:36;;;;;;;3.67;2.20;;;16.80;88.50;;;;;;517714;230;29108;-84
2023/06/05 07:25:37;;;;;;;2.30;1.90;;;16.90;89.20;;;;;;517810;230;28715;-84
2023/06/05 07:27:40;;;;;;;3.40;1.90;;;16.90;88.80;;;;;;517829;230;28685;-83
2023/06/05 07:29:40;;;;;;;2.30;1.97;;;17.10;88.40;;;;;;517745;230;28691;-82
2023/06/05 07:31:41;;;;;;;3.27;1.90;;;17.10;86.20;;;;;;517819;230;28596;-84
2023/06/05 07:33:42;;;;;;;3.80;2.20;;;17.00;87.40;;;;;;517799;230;28640;-83
2023/06/05 07:35:45;;;;;;;4.00;1.97;;;17.10;88.80;;;;;;517765;230;28688;-81
2023/06/05 07:37:45;;;;;;;2.53;2.30;;;17.10;87.60;;;;;;517676;230;28609;-85
2023/06/05 07:39:47;;;;;;;2.10;1.90;;;17.20;87.20;;;;;;517760;230;28706;-83
2023/06/05 07:41:47;;;;;;;2.30;2.10;;;17.20;87.30;;;;;;517705;230;28613;-84
2023/06/05 07:43:48;;;;;;;3.90;2.40;;;17.40;87.50;;;;;;517748;230;29171;-84
2023/06/05 07:45:50;;;;;;;3.67;2.53;;;17.60;87.30;;;;;;517637;230;29141;-81
2023/06/05 07:47:51;;;;;;;4.80;2.60;;;17.60;86.10;;;;;;517745;230;29148;-84
2023/06/05 07:49:52;;;;;;;7.83;2.40;;;17.70;85.20;;;;;;517719;230;28673;-82
2023/06/05 07:51:53;;;;;;;2.80;2.50;;;17.80;85.90;;;;;;517705;230;28687;-83
2023/06/05 07:53:55;;;;;;;15.43;3.63;;;17.90;84.50;;;;;;517699;229;28624;-83
2023/06/05 07:55:56;;;;;;;4.57;2.47;;;18.00;85.10;;;;;;517712;230;28673;-81
2023/06/05 07:57:59;;;;;;;4.87;1.90;;;18.00;82.60;;;;;;517747;230;28597;-85
2023/06/05 07:59:58;;;;;;;3.63;2.33;;;18.00;82.90;;;;;;517656;230;28730;-82
2023/06/05 08:02:00;;;;;;;2.47;2.23;;;18.10;83.60;;;;;;517748;230;28711;-84
2023/06/05 08:04:01;;;;;;;2.70;2.43;;;18.20;84.30;;;;;;517702;230;28662;-83
2023/06/05 08:06:02;;;;;;;6.23;2.40;;;18.40;82.40;;;;;;517636;230;28627;-82
2023/06/05 08:08:04;;;;;;;4.73;2.27;;;18.30;81.00;;;;;;517732;230;29066;-83
2023/06/05 08:10:05;;;;;;;2.73;2.47;;;18.50;82.90;;;;;;517733;230;29104;-83
2023/06/05 08:12:06;;;;;;;2.87;1.93;;;18.40;82.60;;;;;;517766;230;29095;-83
2023/06/05 08:14:07;;;;;;;3.33;2.13;;;18.40;83.70;;;;;;517758;230;28636;-83
2023/06/05 08:16:09;;;;;;;4.17;2.93;;;18.50;83.20;;;;;;517693;229;28619;-84
2023/06/05 08:18:10;;;;;;;4.17;2.57;;;18.50;83.10;;;;;;517761;230;28593;-83
2023/06/05 08:20:11;;;;;;;5.00;2.13;;;18.70;82.90;;;;;;517762;229;28699;-82
2023/06/05 08:22:14;;;;;;;2.50;2.30;;;18.60;81.20;;;;;;517730;230;28638;-83
2023/06/05 08:24:14;;;;;;;4.77;2.53;;;18.70;81.50;;;;;;517628;230;28644;-83
2023/06/05 08:26:15;;;;;;;2.90;2.33;;;19.00;82.80;;;;;;517659;230;28608;-84
2023/06/05 08:28:16;;;;;;;2.50;2.30;;;18.90;81.00;;;;;;517734;230;28644;-83
2023/06/05 08:30:17;;;;;;;3.43;2.17;;;18.90;80.70;;;;;;517761;230;28721;-81
2023/06/05 08:32:20;;;;;;;5.40;2.50;;;19.00;82.00;;;;;;517720;230;28632;-83
2023/06/05 08:34:20;;;;;;;3.00;2.37;;;19.20;81.80;;;;;;517549;230;29133;-82
2023/06/05 08:36:21;;;;;;;2.90;2.40;;;19.10;82.70;;;;;;517686;230;28596;-82
2023/06/05 08:38:22;;;;;;;10.03;2.10;;;19.20;82.50;;;;;;517709;230;28644;-83
2023/06/05 08:40:24;;;;;;;3.03;2.30;;;19.30;83.90;;;;;;517739;229;28641;-81
2023/06/05 08:42:27;;;;;;;2.20;2.00;;;19.40;84.00;;;;;;517704;230;28600;-83
2023/06/05 08:44:26;;;;;;;2.77;2.13;;;19.50;83.10;;;;;;517417;230;28626;-84
2023/06/05 08:46:27;;;;;;;2.30;2.10;;;19.60;80.80;;;;;;517694;230;28608;-83
2023/06/05 08:48:29;;;;;;;4.33;2.20;;;19.50;80.50;;;;;;517697;230;28635;-83
2023/06/05 08:50:30;;;;;;;2.30;2.10;;;19.50;81.50;;;;;;517694;230;29088;-82
2023/06/05 08:52:31;;;;;;;4.73;2.30;;;19.60;80.20;;;;;;517709;230;29077;-84
2023/06/05 08:54:32;;;;;;;3.40;2.67;;;19.50;83.00;;;;;;517636;230;29136;-82
2023/06/05 08:56:35;;;;;;;4.90;2.33;;;19.40;81.60;;;;;;517715;230;28584;-82
2023/06/05 08:58:35;;;;;;;3.17;2.47;;;19.60;81.60;;;;;;517590;230;28635;-84
2023/06/05 09:00:36;;;;;;;12.97;3.13;;;19.70;81.60;;;;;;517748;230;28706;-81
2023/06/05 09:02:38;;;;;;;2.27;2.07;;;19.80;81.20;;;;;;517712;230;28684;-82
2023/06/05 09:04:39;;;;;;;3.10;2.30;;;19.80;81.50;;;;;;517656;230;28717;-83
2023/06/05 09:06:41;;;;;;;5.50;2.40;;;19.80;80.70;;;;;;517708;230;28612;-83
2023/06/05 09:08:41;;;;;;;10.50;3.53;;;19.80;81.30;;;;;;517685;230;28666;-84
2023/06/05 09:10:42;;;;;;;2.90;2.60;;;19.90;80.10;;;;;;517736;230;28729;-81
2023/06/05 09:12:44;;;;;;;3.50;2.43;;;19.90;80.80;;;;;;517728;230;29523;-83
2023/06/05 09:14:45;;;;;;;4.43;2.30;;;20.00;82.00;;;;;;517662;230;29105;-82
2023/06/05 09:16:46;;;;;;;3.83;2.80;;;20.10;78.50;;;;;;517705;230;29084;-83
2023/06/05 09:18:47;;;;;;;3.10;2.60;;;20.30;79.30;;;;;;517682;230;28664;-82
2023/06/05 09:20:50;;;;;;;4.13;2.57;;;20.60;80.10;;;;;;517719;230;28641;-81
2023/06/05 09:22:50;;;;;;;9.57;2.67;;;20.60;80.70;;;;;;517657;230;28589;-83
2023/06/05 09:24:51;;;;;;;8.27;2.60;;;20.60;78.00;;;;;;517688;230;28652;-81
2023/06/05 09:26:52;;;;;;;4.90;2.63;;;20.40;77.60;;;;;;517730;230;28770;-84
2023/06/05 09:28:54;;;;;;;3.90;2.30;;;20.40;78.20;;;;;;517732;230;28640;-83
2023/06/05 09:30:56;;;;;;;2.80;2.43;;;20.40;78.30;;;;;;517748;230;29086;-83
2023/06/05 09:32:56;;;;;;;3.10;2.67;;;20.60;79.30;;;;;;517724;230;28608;-83
2023/06/05 09:35:00;;;;;;;6.10;2.70;;;20.80;79.10;;;;;;517679;230;28695;-82
2023/06/05 09:36:59;;;;;;;4.77;3.13;;;20.80;77.50;;;;;;517532;230;28774;-83
2023/06/05 09:39:00;;;;;;;3.63;2.80;;;20.80;76.50;;;;;;517705;230;29227;-83
2023/06/05 09:41:01;;;;;;;4.23;2.90;;;20.70;76.80;;;;;;517691;230;29228;-81
2023/06/05 09:43:02;;;;;;;4.80;2.80;;;20.70;78.40;;;;;;517736;230;29050;-83
2023/06/05 09:45:04;;;;;;;5.50;2.30;;;21.00;78.80;;;;;;517631;230;28632;-83
2023/06/05 09:47:05;;;;;;;5.90;2.50;;;21.00;76.80;;;;;;517703;230;28691;-82
2023/06/05 09:49:06;;;;;;;5.67;2.30;;;21.00;75.80;;;;;;517682;230;28657;-83
2023/06/05 09:51:07;;;;;;;4.40;2.97;;;21.00;76.70;;;;;;517725;230;28718;-81
2023/06/05 09:53:09;;;;;;;3.23;2.90;;;20.90;77.30;;;;;;503822;230;28733;-82
2023/06/05 09:55:10;;;;;;;3.40;2.60;;;20.90;78.60;;;;;;479162;248;28954;-82
2023/06/05 09:57:11;;;;;;;4.80;3.00;;;21.40;76.80;;;;;;495568;240;28800;-82
2023/06/05 09:59:12;;;;;;;8.23;2.70;;;21.50;75.40;;;;;;495549;238;28675;-82
2023/06/05 10:01:14;;;;;;;4.90;2.70;;;21.30;75.60;;;;;;495587;240;29150;-81
2023/06/05 10:03:16;;;;;;;5.33;2.73;;;21.10;74.40;;;;;;495557;240;29123;-83
2023/06/05 10:05:16;;;;;;;8.93;2.77;;;21.00;77.20;;;;;;495499;240;29221;-83
2023/06/05 10:07:17;;;;;;;4.80;3.00;;;21.10;78.10;;;;;;495549;240;29215;-83
2023/06/05 10:09:19;;;;;;;3.00;2.50;;;21.50;75.60;;;;;;495557;240;28678;-83
2023/06/05 10:11:20;;;;;;;10.83;3.00;;;21.70;74.10;;;;;;495573;240;28700;-81
2023/06/05 10:13:21;;;;;;;5.33;2.37;;;21.60;75.90;;;;;;495588;240;28689;-83
2023/06/05 10:15:22;;;;;;;12.17;3.40;;;21.50;73.60;;;;;;495507;240;28758;-82
2023/06/05 10:17:24;;;;;;;10.57;3.00;;;21.50;75.00;;;;;;495569;240;28743;-83
2023/06/05 10:19:25;;;;;;;3.17;2.87;;;21.60;72.80;;;;;;495543;240;28708;-82
2023/06/05 10:21:27;;;;;;;4.20;2.80;;;21.70;72.80;;;;;;495567;240;28684;-81
2023/06/05 10:23:27;;;;;;;3.37;2.47;;;22.10;69.80;;;;;;495505;240;28632;-83
2023/06/05 10:25:29;;;;;;;6.13;2.70;;;22.00;71.00;;;;;;495522;240;29164;-83
2023/06/05 10:27:30;;;;;;;4.27;2.60;;;21.90;71.50;;;;;;495567;240;29238;-81
2023/06/05 10:29:31;;;;;;;3.20;2.80;;;21.70;69.90;;;;;;495567;239;29253;-82
2023/06/05 10:31:32;;;;;;;4.30;3.00;;;21.60;72.60;;;;;;495626;240;28742;-81